x

West Oregon - 275nm West Of Coos Bay, Or (46002) Wave Buoy

8:50am - Thu 2nd Apr 2015 All times are UTC.

  • Sig Wave height 8.2ft
  • Peak Period 11s
  • Average Period 8s
  • Wind
    4mph, 9mph gusts
  • Sea Temp 55°f
  • Air Temp 52°f
  • Sea Pressure 1032.3mb

More Historic Weather Station data

Upgrade to MSW Pro to gain access to the past 30 days of data for over 8000 Wavebouys and Weather Stations around the globe.

Join Pro

Comparision Forecast

View Surf forecast
   
Thu 04/02 8:50am 8ft 11s 8s 4 9 mph 1032.3mb 55f 52f
7:50am 9ft 11s 9s 7 9 mph 1032.4mb 55f 52f
6:50am 8.5ft 11s 8s 9 11 mph 1032.5mb 55f 52f
5:50am 8ft 11s 8s 11 16 mph 1032.4mb 55f 52f
4:50am 8.5ft 11s 8s 11 13 mph 1032.2mb 55f 52f
3:50am 9ft 11s 8s 11 16 mph 1031.7mb 55f 52f
2:50am 9.5ft 12s 9s 11 16 mph 1031.6mb 55f 52f
1:50am 9ft 10s 8s 11 16 mph 1031.5mb 55f 53f
12:50am 9ft 12s 8s 13 16 mph 1031.8mb 55f 53f
Wed 04/01 11:50pm 10ft 12s 8s 13 18 mph 1031.9mb 55f 53f
10:50pm 9ft 12s 8s 16 18 mph 1031.9mb 55f 53f
9:50pm 10ft 12s 9s 13 18 mph 1031.8mb 55f 53f
8:50pm 10ft 13s 9s 13 16 mph 1031.8mb 55f 53f
7:50pm 10ft 12s 8s 11 16 mph 1032mb 55f 52f
6:50pm 10ft 13s 8s 13 18 mph 1031.7mb 55f 52f
5:50pm 10ft 11s 8s 13 18 mph 1031.4mb 55f 53f
4:50pm 11.5ft 12s 9s 16 20 mph 1030.8mb 55f 53f
3:50pm 10.5ft 13s 8s 16 20 mph 1030.5mb 55f 52f
2:50pm 11ft 13s 9s 16 18 mph 1030mb 55f 52f
1:50pm 10ft 12s 8s 11 16 mph 1029.6mb 55f 52f
12:50pm 10ft 14s 8s 13 18 mph 1029.3mb 55f 52f
11:50am 9ft 13s 8s 13 18 mph 1029.3mb 55f 53f
10:50am 10ft 12s 9s 13 18 mph 1029.3mb 55f 53f
9:50am 10ft 11s 8s 13 16 mph 1029.2mb 55f 53f
8:50am 10ft 14s 8s 16 18 mph 1029.2mb 55f 53f
7:50am 9ft 13s 8s 16 18 mph 1028.8mb 55f 53f
6:50am 10ft 15s 9s 13 16 mph 1028.6mb 55f 52f
5:50am 10ft 13s 8s 16 18 mph 1028.1mb 55f 52f
4:50am 10.5ft 11s 8s 13 18 mph 1027.6mb 55f 52f
3:50am 11ft 11s 8s 16 20 mph 1027mb 55f 52f
2:50am 10ft 11s 8s 16 20 mph 1026.3mb 55f 51f
1:50am 9.5ft 12s 8s 20 25 mph 1025.8mb 55f 51f
12:50am 10ft 15s 8s 18 20 mph 1025.6mb 55f 51f
Tue 03/31 11:50pm 9ft 14s 8s 16 18 mph 1025.1mb 55f 51f
10:50pm 10ft 13s 8s 11 16 mph 1024.9mb 55f 51f
9:50pm 9.5ft 11s 8s 4 9 mph 1024.5mb 55f 50f
8:50pm 9.5ft 15s 8s 4 9 mph 1024.5mb 55f 50f
7:50pm 9ft 11s 8s 11 16 mph 1024.3mb 55f 49f
6:50pm 10.5ft 14s 8s 11 13 mph 1024.4mb 55f 50f
5:50pm 10ft 15s 8s 16 22 mph 1024.2mb 55f 50f
4:50pm 10ft 15s 8s 13 16 mph 1023.2mb 55f 52f
3:50pm 10ft 15s 8s 16 18 mph 1022.8mb 55f 53f
2:50pm 9ft 15s 8s 18 25 mph 1022.6mb 55f 52f
1:50pm 10ft 14s 8s 13 16 mph 1022.4mb 55f 52f
12:50pm 9ft 11s 7s 18 20 mph 1022mb 55f 52f
11:50am 9ft 15s 7s 16 18 mph 1021.9mb 55f 51f
10:50am 10ft 15s 7s 18 20 mph 1021.7mb 55f 52f
9:50am 10.5ft 12s 8s 20 25 mph 1021.4mb 55f 52f
8:50am 10ft 16s 8s 18 20 mph 1021.2mb 55f 52f
7:50am 11ft 12s 8s 20 34 mph 1020.8mb 55f 52f
6:50am 9.5ft 12s 8s 13 18 mph 1020.5mb 55f 52f
5:50am 10.5ft 12s 8s 18 22 mph 1020.2mb 55f 51f
4:50am 10ft 12s 8s 18 20 mph 1019.7mb 55f 51f
3:50am 10ft 11s 8s 18 22 mph 1018.9mb 55f 51f
2:50am 10.5ft 12s 8s 16 20 mph 1018.1mb 55f 54f
1:50am 9ft 13s 8s 16 18 mph 1017.8mb 55f 54f
12:50am 10ft 12s 9s 16 20 mph 1017.2mb 55f 54f
Mon 03/30 11:50pm 9ft 11s 9s 16 20 mph 1016.8mb 55f 54f
10:50pm 9.5ft 13s 9s 11 13 mph 1016.7mb 55f 52f
9:50pm 9.5ft 12s 8s 11 16 mph 1016.2mb 55f 52f
8:50pm 10.5ft 12s 8s 11 13 mph 1016.2mb 55f 52f
7:50pm 11ft 13s 8s 18 22 mph 1016.3mb 55f 52f
6:50pm 12ft 12s 9s 16 20 mph 1015.5mb 55f 53f
5:50pm 12ft 13s 8s 7 9 mph 1014.7mb 55f 53f
4:50pm 11ft 13s 8s 11 13 mph 1014.5mb 55f 53f
3:50pm 13ft 11s 8s 16 20 mph 1014.6mb 55f 53f
2:50pm 12ft 12s 8s 22 25 mph 1013.9mb 55f 56f
1:50pm 11ft 12s 8s 22 25 mph 1014.2mb 55f 56f
12:50pm 11.5ft 13s 8s 20 25 mph 1014.6mb 55f 56f
11:50am 11.5ft 13s 8s 22 25 mph 1015.6mb 55f 56f
10:50am 10ft 13s 8s 20 25 mph 1016.6mb 55f 56f
9:50am 10.5ft 13s 8s 20 25 mph 1017.2mb 55f 56f
8:50am 11.5ft 13s 8s 20 25 mph 1017.9mb 55f 56f
7:50am 11.5ft 11s 8s 20 25 mph 1018.3mb 55f 56f
6:50am 12ft 12s 8s 20 25 mph 1018.6mb 55f 56f
5:50am 11ft 13s 8s 18 20 mph 1019.2mb 55f 56f
4:50am 12ft 12s 9s 18 22 mph 1019.5mb 55f 56f
3:50am 11ft 13s 9s 18 22 mph 1019.6mb 56f 56f
2:50am 11ft 12s 9s 16 20 mph 1020.2mb 56f 56f
1:50am 9.5ft 12s 8s 16 18 mph 1020.8mb 56f 56f
12:50am 10.5ft 14s 9s 16 18 mph 1021.3mb 56f 57f
Sun 03/29 11:50pm 9.5ft 12s 9s 13 18 mph 1021.5mb 56f 57f
10:50pm 10ft 13s 8s 13 16 mph 1022.1mb 56f 57f
9:50pm 9.5ft 14s 8s 16 18 mph 1022.7mb 55f 57f
8:50pm 10.5ft 12s 8s 13 18 mph 1023.3mb 55f 56f
7:50pm 10.5ft 11s 8s 13 18 mph 1023.7mb 55f 56f
6:50pm 11ft 12s 8s 13 18 mph 1024.1mb 55f 56f
5:50pm 10ft 11s 8s 13 18 mph 1024mb 55f 56f
4:50pm 11ft 13s 8s 16 20 mph 1023.9mb 55f 56f
3:50pm 13ft 11s 9s 13 16 mph 1023.6mb 55f 56f
2:50pm 12ft 12s 9s 16 18 mph 1023.8mb 55f 56f
1:50pm 12.5ft 12s 9s 16 18 mph 1023.6mb 55f 56f
12:50pm 12.5ft 11s 9s 13 18 mph 1023.5mb 55f 56f
11:50am 13ft 12s 9s 18 20 mph 1023.9mb 55f 56f
10:50am 12ft 11s 9s 16 20 mph 1024.3mb 55f 56f